Time;durP1;ratioP1;P1;durP2;ratioP2;P2;SDS_P1;SDS_P2;PMS_P1;PMS_P2;Temp;Humidity;BMP_temperature;BMP_pressure;BME280_temperature;BME280_humidity;BME280_pressure;Samples;Min_cycle;Max_cycle;Signal;HPM_P1;HPM_P2
2022/05/18 00:01:08;;;;;;;2.20;2.10;;;18.50;65.20;18.90;96968.00;;;;5050544;28;20556;-85
2022/05/18 00:03:40;;;;;;;2.03;1.93;;;18.50;65.40;18.90;96977.00;;;;5047475;28;20193;-85
2022/05/18 00:06:08;;;;;;;2.03;1.93;;;18.40;65.40;18.80;96982.00;;;;5048298;28;20557;-85
2022/05/18 00:08:36;;;;;;;2.30;2.20;;;18.40;65.40;18.80;96984.00;;;;5048660;28;20209;-85
2022/05/18 00:11:09;;;;;;;2.60;2.40;;;18.30;65.80;18.70;96978.00;;;;5048637;28;20247;-85
2022/05/18 00:13:37;;;;;;;2.53;2.13;;;18.30;66.10;18.70;96979.00;;;;5049248;28;20300;-85
2022/05/18 00:16:06;;;;;;;2.43;2.33;;;18.30;66.10;18.70;96984.00;;;;5048422;28;20193;-84
2022/05/18 00:18:34;;;;;;;2.60;2.40;;;18.20;66.00;18.60;96979.00;;;;5051792;28;20259;-85
2022/05/18 00:21:01;;;;;;;2.53;2.00;;;18.20;66.10;18.60;96976.00;;;;5051287;28;20204;-85
2022/05/18 00:23:28;;;;;;;2.63;2.37;;;18.20;66.40;18.60;96973.00;;;;5051402;28;20254;-85
2022/05/18 00:25:55;;;;;;;2.47;2.00;;;18.10;66.40;18.50;96975.00;;;;5051036;28;20196;-85
2022/05/18 00:28:24;;;;;;;3.20;1.90;;;18.10;66.40;18.50;96978.00;;;;5051443;28;20306;-85
2022/05/18 00:30:51;;;;;;;2.30;2.10;;;18.10;67.20;18.50;96982.00;;;;5046769;28;20231;-85
2022/05/18 00:33:19;;;;;;;2.47;2.27;;;18.10;66.50;18.50;96976.00;;;;5051306;28;20655;-85
2022/05/18 00:35:46;;;;;;;2.97;2.50;;;18.00;66.60;18.40;96979.00;;;;5050096;28;20642;-85
2022/05/18 00:38:13;;;;;;;2.50;2.30;;;18.00;66.80;18.40;96984.00;;;;5051379;28;20228;-85
2022/05/18 00:40:46;;;;;;;2.63;2.43;;;18.00;66.90;18.40;96982.00;;;;5050922;28;20219;-85
2022/05/18 00:43:19;;;;;;;2.53;2.33;;;17.90;67.00;18.30;96989.00;;;;5051292;28;20193;-85
2022/05/18 00:45:48;;;;;;;2.30;1.90;;;18.00;67.30;18.30;96981.00;;;;5052399;28;20193;-85
2022/05/18 00:48:15;;;;;;;2.30;2.10;;;17.90;67.20;18.30;96992.00;;;;5053764;28;20219;-85
2022/05/18 00:50:43;;;;;;;2.70;2.27;;;17.90;67.20;18.30;96990.00;;;;5052278;28;20196;-85
2022/05/18 00:53:17;;;;;;;2.43;2.13;;;17.90;67.20;18.30;96992.00;;;;5054521;28;20193;-85
2022/05/18 00:55:51;;;;;;;3.40;2.43;;;17.80;67.10;18.30;96997.00;;;;5053815;28;20210;-85
2022/05/18 00:58:26;;;;;;;2.63;2.43;;;17.80;67.20;18.20;96993.00;;;;5053405;28;20224;-85
2022/05/18 01:00:56;;;;;;;3.27;2.30;;;17.80;67.30;18.20;96991.00;;;;5051693;28;20695;-85
2022/05/18 01:03:27;;;;;;;2.57;2.37;;;17.80;67.10;18.20;96988.00;;;;5053293;28;20554;-85
2022/05/18 01:06:01;;;;;;;2.20;2.07;;;17.80;67.10;18.20;96990.00;;;;5051714;28;20188;-85
2022/05/18 01:08:45;;;;;;;2.73;2.53;;;17.70;67.30;18.20;96991.00;;;;5051402;28;20216;-85
2022/05/18 01:11:12;;;;;;;2.90;2.00;;;17.80;67.50;18.10;96996.00;;;;5052148;28;20211;-85
2022/05/18 01:13:39;;;;;;;2.13;1.93;;;17.70;67.30;18.00;96991.00;;;;5052853;28;20203;-85
2022/05/18 01:16:08;;;;;;;2.20;2.10;;;17.60;67.40;18.00;96993.00;;;;5052107;28;20203;-85
2022/05/18 01:18:35;;;;;;;3.77;2.20;;;17.60;67.50;17.90;96997.00;;;;5052319;28;20266;-85
2022/05/18 01:21:03;;;;;;;2.60;2.40;;;17.60;67.40;17.90;97000.00;;;;5052771;28;20211;-85
2022/05/18 01:23:49;;;;;;;2.40;2.20;;;17.50;67.50;17.90;97000.00;;;;5052340;28;20576;-85
2022/05/18 01:26:25;;;;;;;2.33;2.10;;;17.60;68.00;17.90;96999.00;;;;5049529;28;20592;-85
2022/05/18 01:28:58;;;;;;;2.20;2.00;;;17.50;67.70;17.90;97004.00;;;;5046375;28;21477;-85
2022/05/18 01:31:46;;;;;;;2.17;1.97;;;17.50;67.90;17.90;97003.00;;;;5051982;28;20232;-85
2022/05/18 01:34:14;;;;;;;1.77;1.67;;;17.50;68.40;17.90;97007.00;;;;5046577;28;20563;-85
2022/05/18 01:36:41;;;;;;;2.60;2.40;;;17.50;68.10;17.90;97005.00;;;;5047597;28;20196;-85
2022/05/18 01:39:16;;;;;;;2.40;2.03;;;17.50;68.20;17.90;97001.00;;;;5051037;28;20575;-83
2022/05/18 01:41:55;;;;;;;2.57;2.37;;;17.50;68.20;17.80;96998.00;;;;5052999;28;20200;-85
2022/05/18 01:44:24;;;;;;;2.43;2.23;;;17.40;68.10;17.80;97008.00;;;;5045283;28;20193;-85
2022/05/18 01:46:52;;;;;;;2.37;2.17;;;17.40;67.90;17.80;97006.00;;;;5050992;28;20200;-85
2022/05/18 01:49:19;;;;;;;2.10;2.00;;;17.40;67.90;17.80;97004.00;;;;5046857;28;20662;-84
2022/05/18 01:51:51;;;;;;;2.90;2.33;;;17.40;68.00;17.70;97000.00;;;;5053203;28;20576;-85
2022/05/18 01:54:18;;;;;;;2.80;2.60;;;17.30;68.00;17.70;97006.00;;;;5051516;28;20201;-85
2022/05/18 01:56:46;;;;;;;2.47;2.27;;;17.30;68.00;17.70;97010.00;;;;5048922;28;20647;-85
2022/05/18 01:59:13;;;;;;;2.40;2.20;;;17.30;68.10;17.60;97002.00;;;;5051220;28;20721;-85
2022/05/18 02:01:44;;;;;;;3.10;2.37;;;17.30;68.30;17.60;97003.00;;;;5050769;28;20558;-86
2022/05/18 02:04:12;;;;;;;3.33;2.10;;;17.20;68.30;17.60;97011.00;;;;5051780;28;20203;-86
2022/05/18 02:06:40;;;;;;;1.97;1.87;;;17.20;68.30;17.50;97014.00;;;;5048199;28;20279;-85
2022/05/18 02:09:07;;;;;;;2.50;2.30;;;17.10;68.40;17.50;97013.00;;;;5044904;28;20220;-85
2022/05/18 02:11:36;;;;;;;2.17;2.07;;;17.10;68.50;17.50;97013.00;;;;5051446;28;20224;-85
2022/05/18 02:14:03;;;;;;;2.67;2.20;;;17.00;68.60;17.40;97014.00;;;;5051861;28;20200;-85
2022/05/18 02:16:30;;;;;;;2.57;2.37;;;17.00;68.70;17.40;97021.00;;;;5053182;28;20188;-85
2022/05/18 02:18:58;;;;;;;2.50;2.30;;;17.00;68.90;17.40;97025.00;;;;5051745;28;20217;-85
2022/05/18 02:21:25;;;;;;;2.87;2.67;;;17.00;69.20;17.40;97013.00;;;;5053210;28;20867;-85
2022/05/18 02:23:53;;;;;;;3.10;2.80;;;17.00;69.40;17.40;97017.00;;;;5052746;28;20677;-85
2022/05/18 02:26:21;;;;;;;2.90;2.60;;;17.00;69.50;17.40;97020.00;;;;5052782;28;20697;-85
2022/05/18 02:28:49;;;;;;;3.00;2.67;;;17.00;69.70;17.30;97013.00;;;;5049003;28;20712;-85
2022/05/18 02:31:16;;;;;;;3.80;3.10;;;16.90;69.70;17.30;97008.00;;;;5052385;28;20251;-85
2022/05/18 02:33:44;;;;;;;2.93;2.73;;;16.90;69.90;17.30;97012.00;;;;5052561;28;20208;-85
2022/05/18 02:36:13;;;;;;;3.23;2.93;;;17.00;70.00;17.30;97017.00;;;;5052127;28;20201;-85
2022/05/18 02:38:41;;;;;;;3.10;2.83;;;16.90;70.20;17.30;97021.00;;;;5047139;28;20228;-84
2022/05/18 02:41:08;;;;;;;3.10;2.80;;;16.90;70.20;17.40;97011.00;;;;5035176;28;20207;-85
2022/05/18 02:43:38;;;;;;;3.33;3.03;;;16.90;70.30;17.30;97022.00;;;;5038736;28;20196;-84
2022/05/18 02:46:08;;;;;;;2.90;2.70;;;16.90;70.50;17.40;97024.00;;;;5053452;28;20196;-84
2022/05/18 02:48:35;;;;;;;2.97;2.77;;;16.90;70.80;17.40;97025.00;;;;5052784;28;20222;-85
2022/05/18 02:51:02;;;;;;;2.93;2.70;;;16.90;70.80;17.40;97025.00;;;;5052899;28;20665;-85
2022/05/18 02:53:31;;;;;;;2.93;2.63;;;16.90;70.60;17.40;97015.00;;;;5052117;28;20193;-85
2022/05/18 02:56:06;;;;;;;3.30;3.00;;;16.90;70.70;17.40;97019.00;;;;5052898;28;20195;-85
2022/05/18 02:58:38;;;;;;;3.20;2.90;;;16.90;70.70;17.40;97022.00;;;;5053303;28;20230;-85
2022/05/18 03:01:08;;;;;;;3.47;2.77;;;16.90;70.50;17.40;97019.00;;;;5052986;28;20670;-85
2022/05/18 03:03:36;;;;;;;2.97;2.40;;;17.00;71.40;17.40;97024.00;;;;5052511;28;20212;-84
2022/05/18 03:06:04;;;;;;;2.90;2.70;;;16.90;70.70;17.40;97026.00;;;;5053275;28;20567;-85
2022/05/18 03:08:36;;;;;;;3.17;2.90;;;17.00;71.00;17.40;97028.00;;;;5053356;28;20225;-85
2022/05/18 03:11:04;;;;;;;2.87;2.67;;;17.00;71.40;17.40;97034.00;;;;5052720;28;20189;-85
2022/05/18 03:13:31;;;;;;;3.50;3.30;;;16.90;71.50;17.40;97033.00;;;;5048292;28;20592;-85
2022/05/18 03:15:58;;;;;;;3.20;2.93;;;17.00;71.70;17.40;97040.00;;;;5042026;28;20696;-85
2022/05/18 03:18:26;;;;;;;3.00;2.80;;;17.00;71.70;17.40;97046.00;;;;5052013;28;20231;-85
2022/05/18 03:23:40;;;;;;;3.20;3.00;;;17.00;71.50;17.40;97037.00;;;;5052069;28;20204;-85
2022/05/18 03:26:13;;;;;;;4.30;3.20;;;17.00;71.30;17.40;97046.00;;;;5051069;28;20231;-85
2022/05/18 03:28:42;;;;;;;2.60;2.40;;;17.00;71.20;17.40;97041.00;;;;5049159;28;20607;-85
2022/05/18 03:31:10;;;;;;;3.03;2.67;;;17.00;71.00;17.40;97049.00;;;;5051576;28;20842;-84
2022/05/18 03:33:38;;;;;;;3.37;2.83;;;17.00;70.90;17.40;97053.00;;;;5051338;28;20250;-85
2022/05/18 03:36:09;;;;;;;3.20;2.87;;;17.00;70.80;17.40;97055.00;;;;5050921;28;20606;-85
2022/05/18 03:38:36;;;;;;;2.87;2.67;;;17.00;70.80;17.40;97060.00;;;;5051135;28;20216;-85
2022/05/18 03:41:05;;;;;;;3.20;2.90;;;17.00;70.80;17.40;97066.00;;;;5052177;28;20196;-85
2022/05/18 03:43:32;;;;;;;3.20;2.90;;;16.90;70.80;17.40;97056.00;;;;5051300;28;20592;-85
2022/05/18 03:46:00;;;;;;;3.50;3.20;;;17.00;70.70;17.30;97052.00;;;;5051476;28;20565;-86
2022/05/18 03:48:28;;;;;;;2.83;2.63;;;16.90;70.70;17.30;97061.00;;;;5051435;28;20307;-85
2022/05/18 03:50:58;;;;;;;3.37;3.07;;;16.90;70.70;17.30;97060.00;;;;5051623;28;20208;-85
2022/05/18 03:53:26;;;;;;;3.23;2.83;;;16.90;70.70;17.30;97064.00;;;;5051248;28;20777;-86
2022/05/18 03:55:53;;;;;;;4.23;3.17;;;16.70;70.70;17.30;97068.00;;;;5051335;28;20200;-86
2022/05/18 03:58:22;;;;;;;3.40;3.10;;;17.20;71.10;17.30;97068.00;;;;5051631;28;20220;-85
2022/05/18 04:00:52;;;;;;;3.93;3.30;;;16.80;71.00;17.30;97079.00;;;;5051100;28;20224;-85
2022/05/18 04:03:24;;;;;;;3.10;2.80;;;16.90;71.40;17.30;97080.00;;;;5051022;28;20200;-85
2022/05/18 04:05:53;;;;;;;3.30;3.10;;;16.80;71.50;17.30;97080.00;;;;5051189;28;20200;-85
2022/05/18 04:08:20;;;;;;;4.23;2.83;;;16.80;71.60;17.30;97077.00;;;;5051259;28;20597;-85
2022/05/18 04:10:48;;;;;;;3.33;3.03;;;16.80;71.60;17.30;97080.00;;;;5052391;28;20266;-85
2022/05/18 04:13:20;;;;;;;3.50;3.20;;;16.80;71.60;17.30;97089.00;;;;5052291;28;20368;-86
2022/05/18 04:15:49;;;;;;;3.67;3.00;;;16.80;71.70;17.30;97096.00;;;;5052192;28;20610;-87
2022/05/18 04:18:16;;;;;;;3.07;2.87;;;16.70;71.60;17.30;97094.00;;;;5055901;28;20562;-86
2022/05/18 04:20:43;;;;;;;3.33;3.13;;;16.80;71.70;17.30;97104.00;;;;5055921;28;20189;-86
2022/05/18 04:23:12;;;;;;;3.90;3.50;;;16.80;71.80;17.30;97093.00;;;;5056059;28;20189;-85
2022/05/18 04:25:42;;;;;;;4.77;3.37;;;16.80;71.90;17.30;97110.00;;;;5054962;28;20218;-85
2022/05/18 04:28:13;;;;;;;3.60;3.23;;;16.70;71.90;17.30;97113.00;;;;5052636;28;20224;-85
2022/05/18 04:30:42;;;;;;;4.97;3.77;;;16.70;72.00;17.30;97114.00;;;;5054256;28;20185;-85
2022/05/18 04:33:12;;;;;;;3.73;3.43;;;16.70;72.30;17.30;97119.00;;;;5053873;28;20217;-85
2022/05/18 04:35:40;;;;;;;4.10;3.70;;;16.70;72.60;17.30;97125.00;;;;5052628;28;20199;-84
2022/05/18 04:38:07;;;;;;;4.00;3.67;;;16.70;72.80;17.30;97127.00;;;;5054501;28;20715;-84
2022/05/18 04:40:34;;;;;;;4.40;4.00;;;16.80;73.10;17.30;97131.00;;;;5054236;28;20216;-84
2022/05/18 04:43:01;;;;;;;4.00;3.60;;;16.80;73.20;17.40;97145.00;;;;5054283;28;20200;-85
2022/05/18 04:45:28;;;;;;;4.10;3.73;;;16.80;73.40;17.40;97143.00;;;;5053353;28;20642;-85
2022/05/18 04:47:55;;;;;;;5.00;3.77;;;16.80;73.60;17.50;97149.00;;;;5049682;28;20216;-86
2022/05/18 04:50:24;;;;;;;3.90;3.57;;;16.90;73.60;17.50;97149.00;;;;5054606;28;20200;-84
2022/05/18 04:52:51;;;;;;;4.60;4.20;;;16.90;73.80;17.50;97158.00;;;;5053600;28;20224;-85
2022/05/18 04:55:18;;;;;;;5.03;4.30;;;16.90;73.80;17.60;97157.00;;;;5054765;28;20192;-85
2022/05/18 04:57:45;;;;;;;4.43;4.03;;;17.00;73.90;17.60;97155.00;;;;5052838;28;20259;-85
2022/05/18 05:00:15;;;;;;;3.97;3.67;;;17.00;73.90;17.70;97154.00;;;;5054196;28;20662;-84
2022/05/18 05:02:42;;;;;;;3.77;3.57;;;17.10;74.10;17.70;97153.00;;;;5055244;28;20197;-84
2022/05/18 05:05:14;;;;;;;4.37;4.07;;;17.10;74.10;17.70;97158.00;;;;5056322;28;20722;-85
2022/05/18 05:07:42;;;;;;;4.23;3.90;;;17.20;74.20;17.80;97152.00;;;;5054924;28;20217;-85
2022/05/18 05:10:10;;;;;;;6.17;4.40;;;17.20;74.20;17.80;97159.00;;;;5054497;28;20275;-85
2022/05/18 05:12:37;;;;;;;4.60;4.20;;;17.20;74.20;17.90;97162.00;;;;5053645;28;20216;-85
2022/05/18 05:15:05;;;;;;;4.70;4.33;;;17.30;74.30;17.90;97160.00;;;;5054256;28;20189;-84
2022/05/18 05:17:32;;;;;;;4.30;3.90;;;17.30;74.30;18.00;97173.00;;;;5052886;28;20227;-85
2022/05/18 05:19:59;;;;;;;4.53;4.13;;;17.40;74.40;18.00;97170.00;;;;5053838;28;20208;-85
2022/05/18 05:22:27;;;;;;;4.83;4.43;;;17.40;74.40;18.00;97164.00;;;;5052541;28;20258;-85
2022/05/18 05:24:55;;;;;;;4.67;4.27;;;17.50;74.40;18.10;97176.00;;;;5054590;28;20193;-85
2022/05/18 05:27:22;;;;;;;5.43;4.60;;;17.50;74.60;18.10;97174.00;;;;5053719;28;20746;-85
2022/05/18 05:29:49;;;;;;;4.73;4.33;;;17.50;74.50;18.20;97181.00;;;;5042552;28;20221;-86
2022/05/18 05:32:17;;;;;;;4.77;4.47;;;17.60;74.60;18.20;97175.00;;;;5053678;28;20231;-85
2022/05/18 05:34:45;;;;;;;5.40;4.70;;;17.60;74.60;18.30;97174.00;;;;5055223;28;20203;-85
2022/05/18 05:37:12;;;;;;;4.53;4.13;;;17.70;74.80;18.30;97173.00;;;;5060252;28;21125;-85
2022/05/18 05:39:40;;;;;;;4.63;4.30;;;17.70;74.80;18.40;97175.00;;;;5056678;28;20260;-86
2022/05/18 05:42:10;;;;;;;5.17;4.60;;;17.80;74.90;18.40;97171.00;;;;5054582;28;20208;-86
2022/05/18 05:44:37;;;;;;;5.43;4.70;;;17.80;75.10;18.50;97165.00;;;;5051806;28;20199;-86
2022/05/18 05:47:05;;;;;;;4.80;4.30;;;17.90;75.10;18.60;97166.00;;;;5051124;28;20209;-86
2022/05/18 05:49:32;;;;;;;5.40;5.00;;;17.90;75.10;18.60;97164.00;;;;5053833;28;20207;-86
2022/05/18 05:51:59;;;;;;;5.73;5.20;;;18.00;75.10;18.70;97164.00;;;;5049098;28;20678;-86
2022/05/18 05:54:27;;;;;;;6.00;5.47;;;18.10;75.10;18.80;97164.00;;;;5053671;28;20212;-84
2022/05/18 05:56:54;;;;;;;5.57;5.17;;;18.10;75.10;18.80;97172.00;;;;5051900;28;20193;-86
2022/05/18 05:59:23;;;;;;;5.87;5.20;;;18.20;75.20;18.90;97182.00;;;;5057564;28;20223;-86
2022/05/18 06:01:50;;;;;;;5.67;5.13;;;18.30;75.20;19.00;97183.00;;;;5052646;28;20550;-85
2022/05/18 06:04:18;;;;;;;5.80;5.27;;;18.30;75.20;19.10;97191.00;;;;5056645;28;20670;-86
2022/05/18 06:06:45;;;;;;;5.90;5.40;;;18.40;75.20;19.10;97191.00;;;;5054323;28;20201;-86
2022/05/18 06:09:12;;;;;;;5.77;5.37;;;18.50;75.20;19.20;97199.00;;;;5054733;28;20213;-86
2022/05/18 06:11:40;;;;;;;6.27;5.67;;;18.60;75.20;19.30;97197.00;;;;5053527;28;20201;-86
2022/05/18 06:14:07;;;;;;;5.50;5.10;;;18.60;75.20;19.40;97197.00;;;;5052753;28;20226;-86
2022/05/18 06:16:35;;;;;;;5.73;5.23;;;18.70;75.10;19.40;97193.00;;;;5051906;28;20207;-86
2022/05/18 06:19:02;;;;;;;5.83;5.33;;;18.80;75.10;19.50;97192.00;;;;5053438;28;20221;-86
2022/05/18 06:21:29;;;;;;;5.40;4.90;;;18.90;75.00;19.60;97195.00;;;;5048244;28;20661;-86
2022/05/18 06:23:56;;;;;;;6.20;5.60;;;19.00;75.00;19.70;97198.00;;;;5052431;28;20196;-86
2022/05/18 06:26:26;;;;;;;6.10;5.57;;;19.00;75.00;19.80;97211.00;;;;5051343;28;20673;-85
2022/05/18 06:28:53;;;;;;;6.87;6.13;;;19.10;75.00;19.90;97208.00;;;;5051433;28;20221;-85
2022/05/18 06:31:20;;;;;;;6.37;5.53;;;19.20;75.00;20.00;97214.00;;;;5052733;28;20192;-87
2022/05/18 06:33:49;;;;;;;5.63;5.13;;;19.30;74.80;20.10;97208.00;;;;5040866;28;20611;-86
2022/05/18 06:36:16;;;;;;;5.97;5.47;;;19.40;74.90;20.20;97208.00;;;;5051730;28;20196;-85
2022/05/18 06:38:43;;;;;;;5.97;5.47;;;19.50;74.90;20.30;97202.00;;;;5049302;28;20228;-85
2022/05/18 06:41:22;;;;;;;6.23;5.63;;;19.60;75.20;20.50;97209.00;;;;5052255;28;20201;-85
2022/05/18 06:43:50;;;;;;;5.87;5.47;;;19.70;75.10;20.70;97200.00;;;;5052392;28;20195;-85
2022/05/18 06:46:18;;;;;;;5.47;5.07;;;19.80;75.10;20.90;97211.00;;;;5052337;28;20646;-85
2022/05/18 06:48:46;;;;;;;6.00;5.40;;;19.90;75.30;21.10;97215.00;;;;5053931;28;20213;-85
2022/05/18 06:51:17;;;;;;;5.43;4.97;;;20.10;76.10;21.30;97219.00;;;;5053211;28;20195;-85
2022/05/18 06:53:44;;;;;;;5.70;5.30;;;20.30;75.70;21.50;97221.00;;;;5052766;28;20201;-85
2022/05/18 06:56:11;;;;;;;7.73;4.87;;;20.50;74.40;21.70;97221.00;;;;5053493;28;20474;-85
2022/05/18 06:58:38;;;;;;;5.50;5.10;;;20.60;74.10;21.90;97232.00;;;;5050480;28;20242;-85
2022/05/18 07:01:07;;;;;;;5.03;4.67;;;20.80;73.80;22.20;97224.00;;;;5054066;28;20208;-85
2022/05/18 07:03:34;;;;;;;5.30;4.93;;;21.00;73.20;22.30;97226.00;;;;5052716;28;20205;-85
2022/05/18 07:06:01;;;;;;;5.77;5.10;;;21.20;72.60;22.50;97238.00;;;;5053847;28;20200;-85
2022/05/18 07:08:30;;;;;;;4.97;4.67;;;21.40;72.30;22.60;97242.00;;;;5052484;28;20223;-85
2022/05/18 07:10:57;;;;;;;4.83;4.47;;;21.50;71.40;22.80;97258.00;;;;5048313;28;20189;-85
2022/05/18 07:13:24;;;;;;;5.23;4.73;;;21.70;71.20;22.90;97245.00;;;;5050444;28;20227;-86
2022/05/18 07:15:51;;;;;;;4.50;4.13;;;21.80;70.90;23.00;97247.00;;;;5049909;28;20205;-86
2022/05/18 07:18:19;;;;;;;4.40;4.10;;;22.00;70.70;23.10;97233.00;;;;5053036;28;20681;-85
2022/05/18 07:20:46;;;;;;;4.60;4.27;;;22.10;70.50;23.30;97237.00;;;;5052665;28;20207;-85
2022/05/18 07:23:13;;;;;;;3.83;3.53;;;22.20;70.00;23.50;97239.00;;;;5056039;28;20219;-85
2022/05/18 07:25:42;;;;;;;4.73;4.33;;;22.30;70.00;23.70;97236.00;;;;5054822;28;20282;-85
2022/05/18 07:28:11;;;;;;;4.37;4.07;;;22.50;69.70;23.90;97236.00;;;;5053268;28;20210;-85
2022/05/18 07:30:38;;;;;;;4.10;3.80;;;22.70;68.90;24.10;97238.00;;;;5054636;28;20194;-84
2022/05/18 07:33:06;;;;;;;4.50;3.97;;;22.80;68.90;24.30;97232.00;;;;5048839;28;20219;-84
2022/05/18 07:35:34;;;;;;;4.50;4.20;;;23.00;68.60;24.50;97236.00;;;;5053971;28;20238;-84
2022/05/18 07:38:01;;;;;;;4.67;4.27;;;23.20;68.60;24.70;97229.00;;;;5052248;28;20221;-84
2022/05/18 07:40:29;;;;;;;4.93;4.53;;;23.40;67.70;24.80;97231.00;;;;5052750;28;20199;-84
2022/05/18 07:42:58;;;;;;;4.53;4.23;;;23.50;67.00;25.00;97232.00;;;;5052300;28;21005;-84
2022/05/18 07:45:25;;;;;;;4.43;4.13;;;23.70;66.90;25.20;97236.00;;;;5052373;28;20198;-84
2022/05/18 07:47:53;;;;;;;5.27;4.57;;;23.90;66.70;25.40;97231.00;;;;5051390;28;20218;-84
2022/05/18 07:50:21;;;;;;;4.33;4.03;;;24.00;66.30;25.60;97240.00;;;;5048940;28;20250;-84
2022/05/18 07:52:48;;;;;;;4.50;3.90;;;24.10;66.10;25.80;97254.00;;;;5056216;28;20196;-84
2022/05/18 07:55:16;;;;;;;5.03;4.53;;;24.30;66.10;26.00;97238.00;;;;5055440;28;20207;-84
2022/05/18 07:57:44;;;;;;;3.90;3.60;;;24.50;65.50;26.20;97245.00;;;;5055104;28;20227;-84
2022/05/18 08:00:15;;;;;;;4.37;4.00;;;24.60;65.50;26.50;97245.00;;;;5055969;28;20562;-84
2022/05/18 08:02:42;;;;;;;4.43;4.03;;;24.80;65.00;26.70;97254.00;;;;5055728;28;20177;-84
2022/05/18 08:05:10;;;;;;;3.70;3.40;;;25.10;64.80;27.10;97254.00;;;;5052570;28;20290;-85
2022/05/18 08:07:37;;;;;;;4.40;4.00;;;25.30;64.60;27.30;97259.00;;;;5053914;28;20209;-85
2022/05/18 08:15:38;;;;;;;4.33;3.97;;;25.80;62.50;27.70;97260.00;;;;5053822;28;20212;-85
2022/05/18 08:18:06;;;;;;;4.23;3.93;;;26.00;61.90;27.80;97264.00;;;;5055741;28;20655;-84
2022/05/18 08:20:33;;;;;;;4.07;3.73;;;26.10;61.30;27.90;97256.00;;;;5056542;28;20204;-85
2022/05/18 08:23:00;;;;;;;4.03;3.67;;;26.20;61.10;28.00;97262.00;;;;5064150;28;20204;-85
2022/05/18 08:25:27;;;;;;;3.67;3.37;;;26.30;61.00;28.30;97262.00;;;;5062985;28;20304;-86
2022/05/18 08:27:54;;;;;;;4.28;3.30;;;26.40;60.30;28.60;97264.00;;;;5058849;28;20215;-85
2022/05/18 08:30:23;;;;;;;3.63;3.40;;;26.60;60.40;28.90;97259.00;;;;5057795;28;20196;-85
2022/05/18 08:32:51;;;;;;;4.68;3.80;;;26.70;59.90;29.20;97269.00;;;;5056871;28;20200;-86
2022/05/18 08:35:19;;;;;;;3.53;3.25;;;26.90;59.70;29.60;97274.00;;;;5055558;28;20650;-85
2022/05/18 08:37:49;;;;;;;3.70;2.80;;;27.00;59.70;30.00;97265.00;;;;5056500;28;20209;-86
2022/05/18 08:40:44;;;;;;;3.28;3.03;;;27.20;59.80;30.50;97265.00;;;;5056925;28;20197;-86
2022/05/18 08:43:23;;;;;;;3.10;2.90;;;27.50;59.20;30.90;97277.00;;;;5058082;28;20218;-86
2022/05/18 08:46:05;;;;;;;3.38;3.13;;;27.70;59.40;31.30;97271.00;;;;5059416;28;20291;-86
2022/05/18 08:48:45;;;;;;;3.92;2.70;;;28.00;58.90;31.80;97271.00;;;;5059918;28;20258;-85
2022/05/18 08:51:44;;;;;;;3.38;3.10;;;28.40;58.80;32.20;97270.00;;;;5059521;28;20238;-85
2022/05/18 08:54:30;;;;;;;3.10;2.90;;;28.70;58.40;32.70;97266.00;;;;5061376;28;20220;-83
2022/05/18 08:56:59;;;;;;;3.30;3.00;;;29.10;57.80;33.10;97263.00;;;;5062237;28;20650;-83
2022/05/18 08:59:31;;;;;;;2.97;2.78;;;29.50;56.90;33.30;97272.00;;;;5060559;28;20201;-83
2022/05/18 09:01:59;;;;;;;2.97;2.75;;;29.90;55.70;33.50;97268.00;;;;5058224;28;20235;-85
2022/05/18 09:04:43;;;;;;;2.75;2.55;;;30.20;55.70;33.70;97265.00;;;;5056710;28;20196;-84
2022/05/18 09:07:16;;;;;;;2.70;2.60;;;30.50;55.10;34.00;97262.00;;;;5057867;28;21455;-84
2022/05/18 09:12:38;;;;;;;2.25;2.15;;;31.10;54.10;34.70;97266.00;;;;5059341;28;20231;-82
2022/05/18 09:15:08;;;;;;;2.60;2.20;;;31.50;54.00;34.90;97269.00;;;;5059756;28;20223;-82
2022/05/18 09:17:44;;;;;;;3.78;2.50;;;31.80;53.10;35.10;97266.00;;;;5056621;28;20220;-82
2022/05/18 09:20:22;;;;;;;2.28;2.17;;;32.10;52.60;35.40;97274.00;;;;5059069;28;20235;-85
2022/05/18 09:23:22;;;;;;;2.25;2.08;;;32.50;51.60;35.70;97274.00;;;;5058804;28;20193;-82
2022/05/18 09:26:09;;;;;;;2.20;2.10;;;33.00;50.30;35.90;97281.00;;;;5056171;28;20192;-83
2022/05/18 09:28:52;;;;;;;1.95;1.85;;;33.40;49.20;36.10;97279.00;;;;5059447;28;20209;-83
2022/05/18 09:31:50;;;;;;;1.85;1.75;;;33.90;49.20;36.30;97281.00;;;;5058566;28;20643;-83
2022/05/18 09:34:48;;;;;;;1.77;1.67;;;34.30;48.60;36.60;97282.00;;;;5059955;28;20204;-82
2022/05/18 09:37:32;;;;;;;1.88;1.77;;;34.80;47.60;36.80;97286.00;;;;5059552;28;20261;-82
2022/05/18 09:40:09;;;;;;;1.70;1.60;;;35.30;46.50;37.00;97294.00;;;;5059976;28;20200;-82
2022/05/18 09:42:43;;;;;;;1.70;1.60;;;35.70;46.50;37.20;97288.00;;;;5059921;28;20213;-83
2022/05/18 09:45:16;;;;;;;1.10;1.10;;;36.10;46.10;37.40;97291.00;;;;5059023;28;20188;-82
2022/05/18 09:47:51;;;;;;;1.33;1.23;;;36.50;44.90;37.50;97293.00;;;;5058037;28;20213;-83
2022/05/18 09:50:19;;;;;;;1.45;1.35;;;36.90;43.90;37.70;97287.00;;;;5058692;28;20184;-83
2022/05/18 09:52:49;;;;;;;1.45;1.35;;;37.20;43.80;37.80;97290.00;;;;5055877;28;20193;-82
2022/05/18 09:55:21;;;;;;;1.77;1.42;;;37.50;42.40;37.90;97286.00;;;;5059864;28;20221;-82
2022/05/18 09:57:56;;;;;;;2.22;1.17;;;37.70;42.00;37.90;97283.00;;;;5059516;28;20251;-82
2022/05/18 10:00:27;;;;;;;1.00;0.93;;;37.90;41.50;37.90;97280.00;;;;5058672;28;20533;-82
2022/05/18 10:08:49;;;;;;;3.38;1.15;;;38.20;40.20;37.90;97277.00;;;;5057495;28;20235;-82
2022/05/18 10:11:20;;;;;;;4.75;1.23;;;38.30;40.00;37.90;97279.00;;;;5055912;28;20181;-84
2022/05/18 10:14:01;;;;;;;1.45;1.00;;;38.40;38.80;37.90;97279.00;;;;5058452;28;20208;-82
2022/05/18 10:16:40;;;;;;;0.93;0.70;;;38.40;38.40;37.80;97280.00;;;;5058246;28;20193;-83
2022/05/18 10:19:20;;;;;;;1.23;1.13;;;38.50;38.30;37.70;97280.00;;;;5058606;28;20224;-82
2022/05/18 10:21:55;;;;;;;0.90;0.90;;;38.50;37.70;37.70;97278.00;;;;5054515;28;20189;-82
2022/05/18 10:24:37;;;;;;;1.85;1.27;;;38.50;37.50;37.60;97276.00;;;;5056057;28;20224;-82
2022/05/18 10:27:23;;;;;;;1.40;1.30;;;38.50;37.50;37.50;97274.00;;;;5055765;28;20196;-82
2022/05/18 10:30:05;;;;;;;2.97;1.48;;;38.50;37.60;37.40;97276.00;;;;5055463;28;20211;-82
2022/05/18 10:32:33;;;;;;;1.00;0.90;;;38.40;37.40;37.30;97275.00;;;;5055279;28;20260;-82
2022/05/18 10:35:02;;;;;;;1.25;1.02;;;38.30;37.80;37.20;97275.00;;;;5056292;28;20228;-82
2022/05/18 10:37:31;;;;;;;2.40;1.30;;;38.20;36.20;37.10;97282.00;;;;5056965;28;20278;-82
2022/05/18 10:40:05;;;;;;;0.90;0.90;;;38.10;36.00;36.90;97278.00;;;;5058865;28;20226;-82
2022/05/18 10:42:45;;;;;;;1.88;1.00;;;37.90;35.70;36.80;97276.00;;;;5058932;28;20204;-82
2022/05/18 10:45:32;;;;;;;1.20;1.10;;;37.70;36.30;36.60;97275.00;;;;5057671;28;20180;-82
2022/05/18 10:48:07;;;;;;;1.38;1.20;;;37.50;35.70;36.50;97272.00;;;;5057492;28;20272;-82
2022/05/18 10:50:37;;;;;;;1.10;1.08;;;37.30;36.80;36.30;97275.00;;;;5057273;28;20198;-82
2022/05/18 10:53:28;;;;;;;1.40;1.10;;;37.00;36.60;36.10;97270.00;;;;5057405;28;20275;-82
2022/05/18 10:56:05;;;;;;;1.45;1.20;;;36.70;36.50;35.90;97267.00;;;;5055910;28;20200;-83
2022/05/18 10:58:38;;;;;;;1.45;1.35;;;36.40;35.60;35.70;97264.00;;;;5057919;28;20220;-83
2022/05/18 11:01:11;;;;;;;1.17;1.08;;;36.00;36.40;35.50;97264.00;;;;5056056;28;20187;-82
2022/05/18 11:03:52;;;;;;;1.88;1.42;;;35.70;37.10;35.20;97259.00;;;;5057964;28;20196;-82
2022/05/18 11:06:26;;;;;;;1.42;1.33;;;35.30;37.30;34.80;97253.00;;;;5056002;28;20238;-83
2022/05/18 11:08:58;;;;;;;1.25;1.10;;;34.90;37.60;34.50;97253.00;;;;5056739;28;20311;-83
2022/05/18 11:11:43;;;;;;;1.08;1.05;;;34.50;38.10;34.20;97248.00;;;;5056814;28;20181;-83
2022/05/18 11:14:21;;;;;;;1.60;1.27;;;34.10;38.70;33.90;97258.00;;;;5056071;28;20222;-85
2022/05/18 11:17:04;;;;;;;1.67;1.40;;;33.70;38.50;33.60;97246.00;;;;5052974;28;20707;-85
2022/05/18 11:19:44;;;;;;;1.33;1.13;;;33.40;39.00;33.30;97239.00;;;;5053073;28;20200;-86
2022/05/18 11:22:34;;;;;;;2.83;1.50;;;33.10;40.20;33.00;97236.00;;;;5049824;28;20201;-87
2022/05/18 11:25:22;;;;;;;2.50;1.50;;;32.70;40.60;32.70;97236.00;;;;5049470;28;20205;-87
2022/05/18 11:27:59;;;;;;;1.45;1.35;;;32.40;40.00;32.50;97234.00;;;;5050669;28;20320;-87